createdAt,value
2017-09-23T00:00:44.226Z,62.80
2017-09-23T00:03:11.764Z,63.00
2017-09-23T00:05:39.274Z,63.10
2017-09-23T00:08:06.775Z,63.30
2017-09-23T00:10:35.113Z,63.10
2017-09-23T00:13:02.609Z,63.10
2017-09-23T00:15:30.113Z,63.30
2017-09-23T00:17:57.577Z,63.10
2017-09-23T00:20:25.034Z,62.90
2017-09-23T00:22:53.444Z,62.70
2017-09-23T00:25:20.908Z,62.90
2017-09-23T00:27:48.368Z,62.80
2017-09-23T00:30:15.858Z,62.80
2017-09-23T00:32:43.325Z,62.80
2017-09-23T00:35:10.789Z,63.00
2017-09-23T00:37:38.289Z,63.40
2017-09-23T00:40:05.777Z,63.50
2017-09-23T00:42:33.242Z,63.60
2017-09-23T00:45:00.737Z,63.50
2017-09-23T00:47:28.205Z,63.50
2017-09-23T00:49:55.735Z,63.60
2017-09-23T00:52:24.142Z,63.40
2017-09-23T00:54:51.605Z,63.50
2017-09-23T00:57:19.109Z,63.60
2017-09-23T00:59:46.659Z,63.60
2017-09-23T01:02:14.886Z,64.00
2017-09-23T01:04:42.381Z,63.90
2017-09-23T01:07:10.612Z,64.80
2017-09-23T01:09:38.077Z,64.20
2017-09-23T01:12:05.573Z,64.30
2017-09-23T01:14:33.801Z,63.90
2017-09-23T01:17:01.262Z,64.10
2017-09-23T01:19:28.813Z,63.60
2017-09-23T01:21:56.282Z,63.60
2017-09-23T01:24:24.705Z,63.70
2017-09-23T01:26:52.957Z,64.00
2017-09-23T01:29:22.086Z,64.10
2017-09-23T01:31:50.345Z,63.80
2017-09-23T01:34:17.842Z,63.80
2017-09-23T01:36:45.390Z,63.60
2017-09-23T01:39:12.852Z,63.50
2017-09-23T01:41:40.345Z,63.40
2017-09-23T01:44:07.855Z,63.40
2017-09-23T01:46:36.428Z,63.60
2017-09-23T01:49:04.087Z,63.50
2017-09-23T01:51:31.613Z,63.40
2017-09-23T01:53:59.328Z,63.20
2017-09-23T01:56:27.558Z,63.20
2017-09-23T01:58:55.538Z,63.20
2017-09-23T02:01:23.033Z,63.20
2017-09-23T02:03:51.261Z,63.10
2017-09-23T02:06:18.721Z,63.10
2017-09-23T02:08:46.237Z,63.10
2017-09-23T02:11:13.705Z,63.10
2017-09-23T02:13:41.166Z,63.10
2017-09-23T02:16:08.710Z,63.10
2017-09-23T02:18:36.932Z,63.40
2017-09-23T02:21:04.409Z,63.40
2017-09-23T02:23:31.902Z,63.40
2017-09-23T02:26:00.157Z,63.60
2017-09-23T02:28:27.675Z,63.60
2017-09-23T02:30:56.067Z,63.90
2017-09-23T02:33:23.544Z,64.00
2017-09-23T02:35:51.030Z,63.90
2017-09-23T02:38:19.334Z,63.90
2017-09-23T02:40:46.805Z,63.90
2017-09-23T02:43:14.304Z,64.00
2017-09-23T02:45:41.816Z,64.10
2017-09-23T02:48:09.335Z,64.20
2017-09-23T02:50:37.618Z,64.20
2017-09-23T02:53:05.874Z,64.40
2017-09-23T02:55:33.340Z,64.40
2017-09-23T02:58:00.833Z,64.40
2017-09-23T03:00:29.087Z,64.60
2017-09-23T03:02:58.441Z,64.70
2017-09-23T03:05:26.938Z,64.70
2017-09-23T03:07:54.445Z,64.90
2017-09-23T03:10:21.913Z,64.80
2017-09-23T03:12:49.375Z,64.80
2017-09-23T03:15:16.917Z,64.80
2017-09-23T03:17:45.146Z,64.70
2017-09-23T03:20:12.646Z,64.60
2017-09-23T03:22:40.897Z,64.80
2017-09-23T03:25:08.375Z,64.80
2017-09-23T03:27:36.706Z,65.10
2017-09-23T03:30:04.194Z,65.00
2017-09-23T03:32:31.675Z,65.20
2017-09-23T03:34:59.158Z,65.40
2017-09-23T03:37:27.578Z,65.20
2017-09-23T03:39:55.046Z,65.10
2017-09-23T03:42:22.548Z,64.90
2017-09-23T03:44:50.041Z,64.70
2017-09-23T03:47:18.269Z,64.60
2017-09-23T03:49:45.837Z,64.60
2017-09-23T03:52:14.085Z,64.70
2017-09-23T03:54:41.553Z,64.70
2017-09-23T03:57:09.794Z,64.90
2017-09-23T03:59:37.291Z,64.90
2017-09-23T04:02:05.530Z,64.90
2017-09-23T04:04:32.994Z,64.80
2017-09-23T04:07:00.494Z,64.80
2017-09-23T04:09:28.262Z,64.70
2017-09-23T04:11:55.773Z,64.90
2017-09-23T04:14:23.235Z,65.00
2017-09-23T04:16:50.740Z,65.00
2017-09-23T04:19:18.208Z,65.10
2017-09-23T04:21:45.670Z,65.20
2017-09-23T04:24:13.224Z,65.30
2017-09-23T04:26:40.693Z,65.30
2017-09-23T04:29:08.183Z,65.30
2017-09-23T04:31:35.638Z,65.20
2017-09-23T04:34:03.137Z,65.20
2017-09-23T04:36:31.369Z,65.00
2017-09-23T04:38:58.974Z,65.00
2017-09-23T04:41:26.470Z,65.20
2017-09-23T04:43:53.994Z,65.20
2017-09-23T04:46:21.437Z,65.60
2017-09-23T04:48:49.754Z,65.80
2017-09-23T04:51:17.233Z,65.60
2017-09-23T04:53:44.698Z,65.70
2017-09-23T04:56:12.194Z,65.60
2017-09-23T04:58:39.653Z,65.80
2017-09-23T05:01:07.113Z,66.00
2017-09-23T05:03:34.623Z,65.80
2017-09-23T05:06:02.086Z,65.80
2017-09-23T05:08:30.366Z,65.50
2017-09-23T05:10:57.853Z,65.50
2017-09-23T05:13:25.315Z,65.40
2017-09-23T05:15:52.798Z,65.30
2017-09-23T05:18:21.046Z,65.50
2017-09-23T05:20:48.502Z,65.50
2017-09-23T05:23:15.997Z,65.50
2017-09-23T05:25:43.470Z,65.40
2017-09-23T05:28:10.951Z,65.40
2017-09-23T05:30:38.494Z,65.30
2017-09-23T05:33:05.954Z,65.20
2017-09-23T05:35:33.413Z,65.30
2017-09-23T05:38:00.910Z,65.60
2017-09-23T05:40:28.394Z,65.10
2017-09-23T05:42:56.622Z,65.30
2017-09-23T05:45:24.099Z,65.20
2017-09-23T05:47:51.797Z,65.30
2017-09-23T05:50:20.025Z,65.20
2017-09-23T05:52:47.706Z,65.10
2017-09-23T05:55:15.464Z,65.00
2017-09-23T05:57:43.041Z,64.80
2017-09-23T06:00:10.503Z,64.60
2017-09-23T06:02:38.923Z,64.50
2017-09-23T06:05:06.757Z,64.50
2017-09-23T06:07:34.240Z,64.40
2017-09-23T06:10:01.845Z,64.50
2017-09-23T06:12:29.388Z,64.40
2017-09-23T06:14:56.994Z,64.10
2017-09-23T06:17:24.762Z,64.20
2017-09-23T06:19:53.037Z,64.40
2017-09-23T06:22:21.328Z,64.40
2017-09-23T06:24:49.695Z,64.30
2017-09-23T06:27:17.204Z,64.30
2017-09-23T06:29:44.750Z,64.20
2017-09-23T06:32:12.292Z,64.10
2017-09-23T06:34:39.870Z,64.20
2017-09-23T06:37:07.509Z,64.10
2017-09-23T06:39:35.798Z,63.60
2017-09-23T06:42:03.277Z,63.60
2017-09-23T06:44:31.682Z,63.50
2017-09-23T06:46:59.246Z,63.50
2017-09-23T06:49:26.729Z,63.50
2017-09-23T06:51:54.209Z,63.40
2017-09-23T06:54:21.702Z,63.40
2017-09-23T06:56:49.157Z,63.40
2017-09-23T06:59:16.669Z,63.40
2017-09-23T07:01:44.885Z,63.30
2017-09-23T07:04:12.341Z,63.30
2017-09-23T07:06:39.822Z,63.40
2017-09-23T07:09:07.337Z,63.10
2017-09-23T07:11:34.819Z,63.00
2017-09-23T07:14:02.346Z,62.90
2017-09-23T07:16:29.845Z,62.60
2017-09-23T07:18:57.334Z,62.50
2017-09-23T07:21:24.810Z,62.60
2017-09-23T07:23:53.073Z,62.30
2017-09-23T07:26:20.561Z,62.30
2017-09-23T07:28:48.025Z,62.20
2017-09-23T07:31:15.491Z,62.20
2017-09-23T07:33:43.002Z,61.80
2017-09-23T07:36:10.464Z,61.70
2017-09-23T07:38:37.941Z,61.50
2017-09-23T07:41:05.441Z,61.40
2017-09-23T07:43:32.901Z,61.30
2017-09-23T07:46:00.386Z,61.10
2017-09-23T07:48:27.849Z,60.90
2017-09-23T07:50:55.500Z,60.90
2017-09-23T07:53:23.901Z,61.00
2017-09-23T07:55:51.560Z,61.20
2017-09-23T07:58:19.623Z,61.30
2017-09-23T08:00:47.247Z,61.10
2017-09-23T08:03:15.116Z,61.00
2017-09-23T08:05:42.577Z,61.10
2017-09-23T08:08:10.748Z,61.00
2017-09-23T08:10:38.590Z,61.00
2017-09-23T08:13:06.405Z,61.10
2017-09-23T08:15:34.228Z,61.00
2017-09-23T08:18:01.982Z,60.90
2017-09-23T08:20:30.898Z,61.40
2017-09-23T08:22:58.827Z,61.30
2017-09-23T08:25:26.953Z,61.30
2017-09-23T08:27:55.198Z,61.30
2017-09-23T08:30:24.096Z,61.60
2017-09-23T08:32:51.734Z,61.60
2017-09-23T08:35:19.793Z,61.50
2017-09-23T08:37:48.088Z,61.60
2017-09-23T08:40:17.124Z,61.80
2017-09-23T08:42:46.215Z,61.80
2017-09-23T08:45:13.915Z,61.80
2017-09-23T08:47:42.112Z,61.90
2017-09-23T08:50:10.065Z,61.60
2017-09-23T08:52:37.820Z,61.60
2017-09-23T08:55:05.559Z,61.60
2017-09-23T08:57:33.130Z,61.60
2017-09-23T09:00:00.626Z,61.80
2017-09-23T09:02:28.113Z,61.90
2017-09-23T09:04:55.577Z,62.00
2017-09-23T09:07:23.092Z,62.10
2017-09-23T09:09:50.644Z,62.20
2017-09-23T09:12:18.252Z,62.40
2017-09-23T09:14:45.721Z,62.40
2017-09-23T09:17:13.392Z,62.20
2017-09-23T09:19:41.041Z,62.20
2017-09-23T09:22:08.496Z,62.10
2017-09-23T09:24:35.979Z,62.00
2017-09-23T09:27:03.582Z,62.10
2017-09-23T09:29:31.078Z,61.90
2017-09-23T09:31:58.605Z,62.10
2017-09-23T09:34:26.082Z,62.00
2017-09-23T09:36:54.416Z,62.10
2017-09-23T09:39:21.934Z,62.10
2017-09-23T09:41:49.412Z,61.60
2017-09-23T09:44:16.869Z,61.50
2017-09-23T09:46:44.354Z,61.60
2017-09-23T09:49:11.917Z,61.50
2017-09-23T09:51:39.377Z,61.30
2017-09-23T09:54:06.840Z,61.30
2017-09-23T09:56:35.218Z,61.20
2017-09-23T09:59:02.800Z,60.80
2017-09-23T10:01:31.114Z,59.70
2017-09-23T10:03:58.610Z,59.70
2017-09-23T10:06:26.063Z,59.40
2017-09-23T10:08:53.524Z,59.30
2017-09-23T10:11:21.029Z,59.20
2017-09-23T10:13:48.483Z,59.30
2017-09-23T10:16:15.934Z,59.00
2017-09-23T10:18:44.218Z,58.50
2017-09-23T10:21:11.710Z,58.60
2017-09-23T10:23:39.172Z,58.50
2017-09-23T10:26:06.650Z,58.40
2017-09-23T10:28:34.204Z,58.20
2017-09-23T10:31:01.769Z,58.00
2017-09-23T10:33:30.010Z,57.50
2017-09-23T10:35:57.522Z,57.50
2017-09-23T10:38:25.103Z,57.30
2017-09-23T10:40:52.589Z,57.20
2017-09-23T10:43:20.045Z,57.20
2017-09-23T10:45:47.613Z,57.00
2017-09-23T10:48:15.088Z,56.90
2017-09-23T10:50:42.572Z,56.90
2017-09-23T10:53:10.555Z,56.70
2017-09-23T10:55:38.719Z,56.50
2017-09-23T10:58:06.826Z,56.10
2017-09-23T11:00:35.888Z,56.00
2017-09-23T11:03:03.494Z,56.00
2017-09-23T11:05:31.536Z,55.70
2017-09-23T11:07:59.411Z,55.50
2017-09-23T11:10:26.958Z,55.20
2017-09-23T11:12:55.437Z,55.00
2017-09-23T11:15:24.117Z,54.50
2017-09-23T11:17:52.045Z,54.50
2017-09-23T11:20:19.990Z,54.30
2017-09-23T11:22:48.310Z,54.00
2017-09-23T11:25:15.805Z,54.00
2017-09-23T11:27:45.137Z,53.30
2017-09-23T11:30:12.765Z,53.30
2017-09-23T11:32:41.017Z,52.00
2017-09-23T11:35:08.970Z,52.00
2017-09-23T11:37:37.648Z,51.60
2017-09-23T11:40:05.137Z,51.60
2017-09-23T11:42:32.594Z,51.40
2017-09-23T11:45:00.055Z,50.90
2017-09-23T11:47:27.529Z,51.00
2017-09-23T11:49:54.985Z,51.20
2017-09-23T11:52:22.573Z,51.20
2017-09-23T11:54:50.091Z,50.80
2017-09-23T11:57:17.549Z,50.70
2017-09-23T11:59:45.181Z,50.30
2017-09-23T12:02:12.630Z,49.60
2017-09-23T12:04:40.114Z,49.50
2017-09-23T12:07:07.586Z,49.30
2017-09-23T12:09:35.040Z,49.20
2017-09-23T12:12:02.513Z,49.40
2017-09-23T12:14:29.966Z,49.40
2017-09-23T12:16:57.418Z,49.20
2017-09-23T12:19:24.901Z,48.80
2017-09-23T12:21:52.364Z,48.20
2017-09-23T12:24:20.613Z,47.80
2017-09-23T12:26:48.084Z,47.80
2017-09-23T12:29:15.560Z,47.60
2017-09-23T12:31:43.788Z,46.90
2017-09-23T12:34:11.261Z,46.90
2017-09-23T12:36:38.714Z,46.80
2017-09-23T12:39:06.169Z,46.70
2017-09-23T12:41:33.650Z,46.70
2017-09-23T12:44:01.142Z,46.30
2017-09-23T12:46:28.594Z,46.40
2017-09-23T12:48:56.126Z,46.20
2017-09-23T12:51:23.597Z,46.30
2017-09-23T12:53:51.841Z,45.30
2017-09-23T12:56:20.086Z,44.60
2017-09-23T12:58:47.546Z,45.00
2017-09-23T13:01:15.023Z,44.20
2017-09-23T13:03:42.477Z,43.70
2017-09-23T13:06:10.701Z,44.00
2017-09-23T13:08:39.038Z,44.70
2017-09-23T13:11:06.511Z,44.10
2017-09-23T13:13:33.997Z,44.10
2017-09-23T13:16:02.284Z,42.90
2017-09-23T13:18:29.846Z,42.80
2017-09-23T13:20:57.372Z,42.50
2017-09-23T13:23:24.836Z,42.10
2017-09-23T13:25:52.441Z,41.90
2017-09-23T13:28:19.900Z,40.40
2017-09-23T13:30:47.359Z,38.60
2017-09-23T13:33:14.842Z,37.20
2017-09-23T13:35:42.345Z,35.50
2017-09-23T13:38:10.683Z,34.90
2017-09-23T13:40:39.550Z,33.40
2017-09-23T13:43:07.022Z,33.10
2017-09-23T13:45:34.514Z,30.90
2017-09-23T13:48:01.996Z,28.20
2017-09-23T13:50:29.453Z,28.30
2017-09-23T13:52:56.941Z,28.10
2017-09-23T13:55:24.403Z,27.30
2017-09-23T13:57:51.882Z,26.30
2017-09-23T14:00:19.352Z,25.00
2017-09-23T14:02:46.836Z,23.60
2017-09-23T14:05:15.053Z,21.90
2017-09-23T14:07:42.530Z,21.80
2017-09-23T14:10:10.046Z,21.50
2017-09-23T14:12:37.525Z,21.10
2017-09-23T14:15:04.981Z,20.60
2017-09-23T14:17:32.469Z,20.40
2017-09-23T14:19:59.929Z,20.30
2017-09-23T14:22:27.398Z,19.90
2017-09-23T14:24:54.886Z,19.60
2017-09-23T14:27:22.350Z,19.60
2017-09-23T14:29:49.843Z,19.20
2017-09-23T14:32:17.312Z,19.20
2017-09-23T14:34:44.775Z,18.80
2017-09-23T14:37:13.025Z,18.70
2017-09-23T14:39:40.563Z,18.60
2017-09-23T14:42:08.021Z,18.20
2017-09-23T14:44:35.503Z,18.40
2017-09-23T14:47:03.017Z,18.30
2017-09-23T14:49:30.473Z,18.30
2017-09-23T14:51:58.698Z,18.80
2017-09-23T14:54:26.182Z,18.70
2017-09-23T14:56:53.650Z,19.00
2017-09-23T14:59:21.118Z,19.00
2017-09-23T15:01:48.701Z,18.90
2017-09-23T15:04:16.941Z,18.70
2017-09-23T15:06:44.465Z,18.50
2017-09-23T15:09:11.929Z,18.70
2017-09-23T15:11:39.382Z,18.60
2017-09-23T15:14:06.955Z,18.90
2017-09-23T15:16:34.401Z,18.40
2017-09-23T15:19:01.870Z,18.40
2017-09-23T15:21:29.385Z,18.40
2017-09-23T15:23:57.650Z,19.20
2017-09-23T15:26:25.974Z,19.10
2017-09-23T15:28:53.457Z,19.10
2017-09-23T15:31:20.918Z,19.30
2017-09-23T15:33:48.385Z,20.30
2017-09-23T15:36:15.841Z,21.40
2017-09-23T15:38:43.313Z,22.50
2017-09-23T15:41:11.171Z,23.60
2017-09-23T15:43:38.665Z,24.60
2017-09-23T15:46:06.123Z,24.80
2017-09-23T15:48:33.583Z,25.20
2017-09-23T15:51:01.065Z,26.10
2017-09-23T15:53:28.575Z,27.00
2017-09-23T15:55:56.049Z,27.60
2017-09-23T15:58:24.339Z,26.60
2017-09-23T16:00:51.789Z,26.60
2017-09-23T16:03:19.267Z,26.00
2017-09-23T16:05:46.714Z,25.30
2017-09-23T16:08:14.206Z,24.80
2017-09-23T16:10:42.578Z,24.00
2017-09-23T16:13:10.049Z,24.00
2017-09-23T16:15:37.522Z,23.70
2017-09-23T16:18:04.996Z,23.80
2017-09-23T16:20:32.445Z,24.30
2017-09-23T16:22:59.933Z,24.70
2017-09-23T16:25:28.191Z,26.20
2017-09-23T16:27:55.649Z,26.10
2017-09-23T16:30:23.109Z,27.10
2017-09-23T16:32:50.581Z,27.70
2017-09-23T16:35:18.810Z,29.00
2017-09-23T16:37:46.299Z,28.90
2017-09-23T16:40:14.527Z,30.20
2017-09-23T16:42:43.323Z,30.80
2017-09-23T16:45:10.835Z,30.70
2017-09-23T16:47:38.301Z,31.60
2017-09-23T16:50:05.766Z,32.30
2017-09-23T16:52:33.277Z,32.90
2017-09-23T16:55:00.758Z,33.50
2017-09-23T16:57:29.002Z,35.20
2017-09-23T16:59:57.313Z,35.10
2017-09-23T17:02:25.573Z,35.90
2017-09-23T17:04:53.029Z,35.70
2017-09-23T17:07:20.530Z,36.10
2017-09-23T17:09:48.015Z,36.70
2017-09-23T17:12:15.493Z,37.20
2017-09-23T17:14:43.909Z,38.40
2017-09-23T17:17:13.070Z,38.80
2017-09-23T17:19:40.575Z,38.80
2017-09-23T17:22:08.798Z,39.70
2017-09-23T17:24:36.263Z,39.70
2017-09-23T17:27:03.740Z,39.90
2017-09-23T17:29:31.231Z,40.30
2017-09-23T17:31:58.751Z,41.20
2017-09-23T17:34:26.213Z,40.80
2017-09-23T17:36:53.714Z,41.10
2017-09-23T17:39:21.190Z,41.40
2017-09-23T17:41:48.669Z,41.60
2017-09-23T17:44:16.158Z,41.70
2017-09-23T17:46:44.550Z,42.20
2017-09-23T17:49:13.726Z,42.50
2017-09-23T17:51:41.197Z,43.10
2017-09-23T17:54:08.668Z,42.70
2017-09-23T17:56:36.165Z,42.90
2017-09-23T17:59:03.680Z,43.00
2017-09-23T18:01:31.939Z,43.40
2017-09-23T18:03:59.396Z,43.40
2017-09-23T18:06:26.845Z,43.50
2017-09-23T18:08:54.346Z,43.70
2017-09-23T18:11:22.562Z,44.10
2017-09-23T18:13:50.805Z,44.20
2017-09-23T18:16:18.294Z,44.30
2017-09-23T18:18:45.761Z,44.40
2017-09-23T18:21:13.265Z,44.50
2017-09-23T18:23:41.489Z,44.70
2017-09-23T18:26:08.984Z,44.70
2017-09-23T18:28:38.365Z,44.90
2017-09-23T18:31:05.894Z,44.90
2017-09-23T18:33:33.511Z,45.00
2017-09-23T18:36:00.980Z,45.10
2017-09-23T18:38:28.554Z,45.30
2017-09-23T18:40:56.074Z,45.40
2017-09-23T18:43:23.530Z,45.50
2017-09-23T18:45:51.010Z,45.70
2017-09-23T18:48:18.494Z,45.80
2017-09-23T18:50:45.981Z,45.90
2017-09-23T18:53:13.479Z,46.00
2017-09-23T18:55:41.194Z,46.10
2017-09-23T18:58:08.658Z,46.30
2017-09-23T19:00:36.203Z,46.30
2017-09-23T19:03:03.734Z,46.40
2017-09-23T19:05:31.206Z,46.40
2017-09-23T19:07:59.450Z,46.60
2017-09-23T19:10:26.937Z,46.60
2017-09-23T19:12:54.405Z,46.60
2017-09-23T19:15:21.861Z,46.70
2017-09-23T19:17:49.358Z,46.80
2017-09-23T19:20:16.860Z,46.90
2017-09-23T19:22:46.037Z,47.00
2017-09-23T19:25:13.546Z,47.00
2017-09-23T19:27:41.026Z,47.00
2017-09-23T19:30:08.531Z,47.00
2017-09-23T19:32:35.995Z,47.20
2017-09-23T19:35:04.222Z,47.40
2017-09-23T19:37:31.702Z,47.30
2017-09-23T19:39:59.174Z,47.40
2017-09-23T19:42:26.710Z,47.40
2017-09-23T19:44:54.162Z,47.60
2017-09-23T19:47:21.676Z,47.70
2017-09-23T19:49:49.141Z,47.70
2017-09-23T19:52:16.617Z,47.90
2017-09-23T19:54:44.116Z,48.00
2017-09-23T19:57:11.634Z,48.00
2017-09-23T19:59:39.917Z,48.30
2017-09-23T20:02:07.406Z,48.20
2017-09-23T20:04:34.877Z,48.30
2017-09-23T20:07:02.373Z,48.50
2017-09-23T20:09:30.662Z,48.50
2017-09-23T20:11:58.161Z,48.50
2017-09-23T20:14:25.675Z,48.70
2017-09-23T20:16:53.175Z,48.80
2017-09-23T20:19:20.713Z,48.90
2017-09-23T20:21:48.222Z,49.00
2017-09-23T20:24:16.400Z,49.10
2017-09-23T20:26:44.635Z,49.40
2017-09-23T20:29:12.110Z,49.40
2017-09-23T20:31:39.586Z,49.40
2017-09-23T20:34:07.833Z,49.60
2017-09-23T20:36:35.286Z,49.60
2017-09-23T20:39:02.754Z,49.60
2017-09-23T20:41:30.226Z,49.70
2017-09-23T20:43:57.709Z,49.80
2017-09-23T20:46:26.047Z,49.90
2017-09-23T20:48:53.492Z,49.90
2017-09-23T20:51:20.969Z,49.90
2017-09-23T20:53:48.463Z,50.00
2017-09-23T20:56:16.869Z,50.10
2017-09-23T20:58:44.357Z,50.10
2017-09-23T21:01:11.827Z,50.30
2017-09-23T21:03:39.302Z,50.30
2017-09-23T21:06:06.796Z,50.40
2017-09-23T21:08:34.327Z,50.40
2017-09-23T21:11:02.553Z,50.60
2017-09-23T21:13:30.107Z,50.40
2017-09-23T21:15:57.667Z,50.60
2017-09-23T21:18:25.166Z,50.60
2017-09-23T21:20:52.643Z,50.70
2017-09-23T21:23:20.861Z,51.50
2017-09-23T21:25:48.354Z,50.80
2017-09-23T21:28:15.853Z,50.90
2017-09-23T21:30:43.301Z,51.00
2017-09-23T21:33:10.798Z,51.00
2017-09-23T21:35:38.278Z,51.10
2017-09-23T21:38:05.779Z,51.10
2017-09-23T21:40:33.329Z,51.20
2017-09-23T21:43:01.574Z,51.40
2017-09-23T21:45:29.069Z,51.30
2017-09-23T21:47:57.310Z,51.50
2017-09-23T21:50:24.757Z,51.50
2017-09-23T21:52:52.237Z,51.60
2017-09-23T21:55:19.700Z,51.80
2017-09-23T21:57:48.874Z,51.90
2017-09-23T22:00:16.366Z,51.80
2017-09-23T22:02:43.813Z,51.80
2017-09-23T22:05:11.298Z,51.90
2017-09-23T22:07:38.754Z,51.90
2017-09-23T22:10:06.352Z,52.00
2017-09-23T22:12:33.841Z,52.10
2017-09-23T22:15:01.334Z,52.10
2017-09-23T22:17:28.809Z,52.20
2017-09-23T22:19:56.285Z,52.20
2017-09-23T22:22:23.785Z,52.30
2017-09-23T22:24:51.266Z,52.30
2017-09-23T22:27:18.844Z,52.50
2017-09-23T22:29:46.346Z,52.60
2017-09-23T22:32:13.817Z,52.60
2017-09-23T22:34:42.057Z,52.60
2017-09-23T22:37:09.540Z,52.60
2017-09-23T22:39:37.036Z,52.70
2017-09-23T22:42:05.302Z,52.90
2017-09-23T22:44:33.532Z,53.00
2017-09-23T22:47:01.750Z,53.60
2017-09-23T22:49:29.264Z,53.10
2017-09-23T22:51:56.725Z,53.20
2017-09-23T22:54:24.195Z,53.20
2017-09-23T22:56:51.675Z,53.30
2017-09-23T22:59:20.358Z,53.30
2017-09-23T23:01:47.821Z,53.30
2017-09-23T23:04:16.057Z,54.00
2017-09-23T23:06:43.530Z,53.50
2017-09-23T23:09:11.093Z,53.60
2017-09-23T23:11:38.542Z,53.50
2017-09-23T23:14:06.003Z,53.70
2017-09-23T23:16:33.520Z,53.70
2017-09-23T23:19:00.994Z,53.80
2017-09-23T23:21:28.486Z,53.90
2017-09-23T23:23:55.982Z,54.00
2017-09-23T23:26:24.262Z,54.10
2017-09-23T23:28:52.490Z,54.40
2017-09-23T23:31:20.284Z,54.30
2017-09-23T23:33:47.813Z,54.60
2017-09-23T23:36:15.278Z,54.70
2017-09-23T23:38:43.594Z,54.60
2017-09-23T23:41:11.122Z,54.60
2017-09-23T23:43:38.652Z,54.80
2017-09-23T23:46:06.110Z,54.80
2017-09-23T23:48:33.574Z,54.90
2017-09-23T23:51:01.051Z,54.90
2017-09-23T23:53:28.509Z,55.00
2017-09-23T23:55:56.009Z,55.30
2017-09-23T23:58:24.253Z,55.50
